Airfield :
LOGIN :

Register | Disclaimer

   EN    FR    IT 

 










Legend :    VFR   Marginal VFR   IFR   Intensive IFR   Very Intensive IFR
Visi :
Ceiling :
>= 8 km
>= 3000ft
5 to 8 km
1000 to 3000 ft
1500m to 5 km
500 to 1000 ft
800 to 1500m
200 to 500 ft
< 800m
< 200 ft
Symbols :   Thunderstorms  Fog  Heavy snow  Heavy precipitations  Wind > 20 kt
SIGMETs :     Misc.  Thunderstorms  Icing  Turbulence  Mountain Waves  Volcanic Ashes







- Airport Elevation : 18 ft
- IATA code : AJA
- Download approach charts


LFKJ - Ajaccio

CURRENT METAR :
  • 100130Z AUTO VRB03KT 9999 OVC046 14/06 Q1019 NOSIG

EXPIRED METARs :
  • 100100Z AUTO 25005KT 160V330 9999 OVC050 15/05 Q1018 NOSIG
  • 100030Z AUTO 30007KT 240V340 9999 BKN048 BKN058 OVC070 15/06 Q1019 NOSIG
  • 100000Z AUTO 31009KT 270V020 9999 SCT052 BKN064 BKN074 14/05 Q1019 NOSIG
  • 092330Z AUTO 33008KT 280V010 9999 -RA FEW028 SCT046 BKN058 14/06 Q1019 NOSIG
  • 092300Z AUTO 33012KT 290V360 9999 SCT047 BKN062 OVC080 15/06 Q1019 NOSIG

TAF TAF LFKJ
Valid from the 09 at 21:00 until the 10 at 21:00 UTC


092000Z 0921/1021 30015G25KT 9999 SCT035 BKN050
BECMG 0922/0924 31010KT
BECMG 1009/1011 24005KT FEW040
BECMG 1017/1019 05005KT
ATIS : +33 4 95 23 59 85
No reported NOTAMs for that airfield.
4 SIGMETs reported for the Marseille FIR (LFMM) :
 
Severe turbulence
LFMM SIGMET 28 VALID 092200/100200 LFPW
LFMM MARSEILLE FIR/UIR SEV TURB FCST WI N4600 E00700 - N4400 E00700 - N4315 E00930 - N4145 E00745 - N4515 E00500 - N4600 E00700 FL330/390 MOV NE 10KT NC=
Severe turbulence
LFMM SIGMET 27 VALID 092200/100200 LFPW
LFMM MARSEILLE FIR/UIR SEV TURB FCST WI N4400 E00700 - N4315 E00945 - N4115 E00945 - N4115 E00800 - N4300 E00515 - N4400 E00700 SFC/FL050 STNR NC=
Severe turbulence
LFMM SIGMET 26 VALID 092200/100200 LFPW
LFMM MARSEILLE FIR/UIR SEV TURB FCST WI N4615 E00700 - N4400 E00700 - N4330 E00630 - N4445 E00530 - N4615 E00700 SFC/FL120 STNR NC=
Severe turbulence
LFMM SIGMET 25 VALID 092200/100200 LFPW
LFMM MARSEILLE FIR/UIR SEV TURB FCST WI N4215 E00230 - N4345 E00245 - N4445 E00345 - N4430 E00415 - N4215 E00230 SFC/FL080 STNR NC=



MET'MAP, your aeronautical weather chart ! - Copyright ORBIFLY December 2007 - Disclaimer

ORBIFLY MET'MAP TEAM :

Programming & Development : Alexandra Zaïnal
Concept & Development : Baudouin d'Aumeries
Co-Development & Prog : Marc-Olivier Méhu
Technical & hardware support : Manuel Goepfert

Contact : metmap@orbifly.com




SOURCES & CREDITS :

   NOAA